• Join FlightAware (Why Join?)
  • Login
  • US Flag 
07:10PM EDT


 

Airport Tracker/Info


-or-


 

Live Flight TrackerFlight Track Log ✈ N695BK ✈ 05-May-2013 ✈ KMDW - KPHX

Flight Track Log - Related Links

Times and Time Zones

All times are in EDT time to prevent confusion due to time zone crossing. See the N695BK flight status page for this flight to view local times or setup timezone preferences in your user account.

Time Position Orientation Groundspeed Altitude Reporting Facility
EDT Latitude Longitude Course Direction KTS MPH feet Rate Location/Type
11:37AM 41.8167 -87.7500 283° West 205 236 2,100  Level Chicago TRACON
11:38AM 41.8333 -87.8500 283° West 286 329 4,200 2,220 Climbing Chicago TRACON
11:39AM 41.8311 -87.9258 268° West 284 327 6,200 2,640 Climbing Chicago Center
11:40AM 41.8317 -88.0369 270° West 297 342 9,100 2,580 Climbing Chicago Center
11:41AM 41.8300 -88.1522 269° West 309 356 11,600 2,100 Climbing Chicago Center
11:42AM 41.8239 -88.3003 267° West 335 386 13,500 1,680 Climbing Chicago Center
11:43AM 41.7986 -88.4328 256° West 366 421 15,100 1,560 Climbing Chicago Center
11:44AM 41.7708 -88.5700 255° West 382 440 16,800 1,560 Climbing Chicago Center
11:45AM 41.7417 -88.7078 254° West 388 447 18,400 1,500 Climbing Chicago Center
11:46AM 41.7122 -88.8481 254° West 395 455 19,900 1,440 Climbing Chicago Center
11:47AM 41.6822 -88.9894 254° West 400 460 21,400 1,560 Climbing Chicago Center
11:48AM 41.6458 -89.1633 254° West 407 468 23,100 1,500 Climbing Chicago Center
11:49AM 41.6161 -89.3086 255° West 409 471 24,600 1,380 Climbing Chicago Center
11:50AM 41.5850 -89.4525 254° West 406 467 26,000 1,380 Climbing Chicago Center
11:51AM 41.5558 -89.5928 255° West 404 465 27,500 1,380 Climbing Chicago Center
11:52AM 41.5239 -89.7375 254° West 404 465 28,900 1,380 Climbing Chicago Center
11:53AM 41.4864 -89.9053 253° West 402 463 30,400 1,200 Climbing Chicago Center
11:54AM 41.4553 -90.0472 254° West 401 461 31,500 840 Climbing Chicago Center
11:55AM 41.4219 -90.1917 253° West 406 467 32,200 660 Climbing Chicago Center
11:56AM 41.3897 -90.3406 254° West 414 476 32,900 660 Climbing Chicago Center
11:57AM 41.3558 -90.4908 253° West 422 486 33,600 600 Climbing Chicago Center
11:58AM 41.3203 -90.6444 253° West 431 496 34,200 600 Climbing Chicago Center
11:59AM 41.2825 -90.7997 252° West 440 506 34,900 720 Climbing Chicago Center
12:00PM 41.2383 -90.9842 252° West 438 504 35,700 480 Climbing Chicago Center
12:01PM 41.2000 -91.1386 252° West 442 509 36,000 120 Climbing Chicago Center
12:02PM 41.1619 -91.2989 253° West 453 521 36,000  Level Chicago Center
12:03PM 41.1222 -91.4603 252° West 461 531 36,000  Level Chicago Center
12:04PM 41.0811 -91.6242 252° West 466 536 36,000  Level Chicago Center
12:05PM 41.0408 -91.7858 252° West 467 537 36,000 240 Level Chicago Center
12:06PM 40.9931 -91.9781 252° West 464 534 36,600 600 Climbing Chicago Center
12:07PM 40.9533 -92.1347 251° West 456 525 37,300 600 Climbing Chicago Center
12:08PM 40.9139 -92.2858 251° West 444 511 37,900 300 Climbing Chicago Center
12:10PM 40.8753 -92.4369 251° West 441 507 38,000  Climbing Chicago Center
12:11PM 40.8356 -92.5881 251° West 443 510 38,000  Level Chicago Center
12:12PM 40.7883 -92.7722 251° West 447 514 38,000  Level Chicago Center
12:13PM 40.7486 -92.9242 251° West 445 512 38,000  Level Chicago Center
12:13PM 40.7242 -93.0161 251° West 445 512 38,000  Level Minneapolis Center
12:14PM 40.6847 -93.1661 251° West 441 507 38,000  Level Minneapolis Center
12:15PM 40.6364 -93.3433 250° West 434 499 38,000  Level Minneapolis Center
12:16PM 40.5956 -93.4911 250° West 437 503 38,000  Level Minneapolis Center
12:17PM 40.5578 -93.6397 252° West 436 502 38,000  Level Minneapolis Center
12:18PM 40.5175 -93.7867 250° West 434 499 38,000  Level Minneapolis Center
12:19PM 40.4761 -93.9319 250° West 431 496 38,000  Level Minneapolis Center
12:20PM 40.4258 -94.1075 249° West 431 496 38,000  Level Minneapolis Center
12:22PM 40.3872 -94.2519 251° West 427 491 38,000  Level Minneapolis Center
12:23PM 40.3478 -94.3950 250° West 423 487 38,000  Level Minneapolis Center
12:24PM 40.3086 -94.5372 250° West 420 483 38,000  Level Minneapolis Center
12:25PM 40.2667 -94.6883 250° West 417 480 38,000  Level Minneapolis Center
12:26PM 40.2264 -94.8311 250° West 416 479 38,000  Level Minneapolis Center
12:27PM 40.1853 -94.9739 249° West 418 481 38,000  Level Minneapolis Center
12:28PM 40.1453 -95.1156 250° West 416 479 38,000  Level Minneapolis Center
12:29PM 40.0967 -95.2886 250° West 418 481 38,000  Level Kansas City Center
12:30PM 40.0517 -95.4439 249° West 413 475 38,000  Level Kansas City Center
12:31PM 40.0069 -95.5956 249° West 415 478 38,000  Level Minneapolis Center
12:32PM 39.9669 -95.7356 250° West 416 479 38,000  Level Kansas City Center
12:33PM 39.9247 -95.8764 249° West 413 475 38,000  Level Minneapolis Center
12:34PM 39.8842 -96.0136 249° West 409 471 38,000  Level Minneapolis Center
12:35PM 39.8442 -96.1511 249° West 406 467 38,000  Level Minneapolis Center
12:36PM 39.8036 -96.2850 249° West 407 468 38,000  Level Kansas City Center
12:37PM 39.7561 -96.4400 248° West 407 468 38,000  Level Kansas City Center
12:38PM 39.7175 -96.5694 249° West 404 465 38,000  Level Kansas City Center
12:39PM 39.6714 -96.7211 248° West 405 466 38,000  Level Kansas City Center
12:40PM 39.6336 -96.8456 249° West 399 459 38,000  Level Kansas City Center
12:41PM 39.5928 -96.9803 249° West 401 461 38,000  Level Kansas City Center
12:42PM 39.5522 -97.1122 248° West 398 458 38,000  Level Kansas City Center
12:43PM 39.5019 -97.2747 248° West 400 460 38,000  Level Kansas City Center
12:44PM 39.4619 -97.4019 248° West 399 459 38,000  Level Kansas City Center
12:45PM 39.4161 -97.5517 248° West 400 460 38,000  Level Kansas City Center
12:46PM 39.3744 -97.6842 248° West 398 458 38,000  Level Kansas City Center
12:47PM 39.3317 -97.8169 247° West 399 459 38,000  Level Kansas City Center
12:48PM 39.2906 -97.9508 248° West 394 453 38,000  Level Kansas City Center
12:49PM 39.2500 -98.0769 247° West 395 455 38,000  Level Kansas City Center
12:50PM 39.2025 -98.2247 248° West 402 463 38,000  Level Kansas City Center
12:52PM 39.1594 -98.3572 247° West 402 463 38,000  Level Kansas City Center
12:52PM 39.1444 -98.4017 246° West 405 466 38,000  Level Denver Center
12:53PM 39.1158 -98.4928 248° West 410 472 38,000  Level Kansas City Center
12:54PM 39.0731 -98.6256 247° West 404 465 38,000  Level Kansas City Center
12:55PM 39.0286 -98.7600 247° West 410 472 38,000  Level Kansas City Center
12:56PM 38.9781 -98.9172 248° West 401 461 38,000  Level Kansas City Center
12:56PM 38.9611 -98.9628 244° Southwest 399 459 38,000  Level Denver Center
12:57PM 38.9192 -99.0897 247° West 396 456 38,000  Level Denver Center
12:58PM 38.8703 -99.2347 247° West 397 457 38,000  Level Denver Center
12:59PM 38.8475 -99.3089 248° West 402 463 38,000  Level Kansas City Center
01:00PM 38.8047 -99.4381 247° West 398 458 38,000  Level Kansas City Center
01:00PM 38.7803 -99.5050 245° Southwest 396 456 38,000  Level Denver Center
01:01PM 38.7386 -99.6292 247° West 398 458 38,000  Level Denver Center
01:02PM 38.6900 -99.7742 247° West 398 458 38,000  Level Denver Center
01:03PM 38.6486 -99.8953 246° West 392 451 38,000  Level Denver Center
01:04PM 38.5992 -100.0378 246° West 393 452 38,000  Level Denver Center
01:05PM 38.5575 -100.1619 247° West 395 455 38,000  Level Denver Center
01:06PM 38.5153 -100.2836 246° West 394 453 38,100 240 Climbing Denver Center
01:07PM 38.4656 -100.4250 246° West 393 452 38,600 480 Climbing Denver Center
01:08PM 38.4239 -100.5447 246° West 390 449 39,100 420 Climbing Denver Center
01:09PM 38.3758 -100.6822 246° West 383 441 39,500 360 Climbing Denver Center
01:11PM 38.3356 -100.8006 247° West 382 440 39,900 180 Climbing Denver Center
01:12PM 38.2869 -100.9375 246° West 382 440 40,000  Climbing Denver Center
01:13PM 38.2303 -101.0967 246° West 388 447 40,000  Level Denver Center
01:14PM 38.1878 -101.2175 246° West 392 451 40,000  Level Denver Center
01:15PM 38.1372 -101.3583 246° West 394 453 40,000  Level Denver Center
01:16PM 38.0931 -101.4783 245° Southwest 394 453 40,000  Level Denver Center
01:17PM 38.0425 -101.6186 245° Southwest 394 453 40,000  Level Denver Center
01:18PM 37.9994 -101.7378 245° Southwest 391 450 40,000  Level Denver Center
01:19PM 37.9486 -101.8792 246° West 395 455 40,000  Level Denver Center
01:20PM 37.9044 -102.0003 245° Southwest 396 456 40,000  Level Denver Center
01:21PM 37.8525 -102.1403 245° Southwest 395 455 40,000  Level Denver Center
01:22PM 37.8089 -102.2608 245° Southwest 395 455 40,000  Level Denver Center
01:23PM 37.7572 -102.3989 245° Southwest 392 451 40,000  Level Denver Center
01:24PM 37.7106 -102.5250 245° Southwest 391 450 40,000  Level Denver Center
01:25PM 37.6667 -102.6433 245° Southwest 389 448 40,000  Level Denver Center
01:26PM 37.6156 -102.7814 245° Southwest 389 448 40,000  Level Denver Center
01:27PM 37.5708 -102.8986 244° Southwest 387 445 40,000  Level Denver Center
01:28PM 37.5189 -103.0344 244° Southwest 385 443 40,000  Level Denver Center
01:29PM 37.4753 -103.1514 245° Southwest 383 441 40,000  Level Denver Center
01:30PM 37.4319 -103.2667 245° Southwest 381 438 40,000  Level Denver Center
01:31PM 37.3803 -103.3994 244° Southwest 377 434 40,000  Level Denver Center
01:32PM 37.3594 -103.4581 246° West 378 435 40,000  Level Albuquerque Center
01:33PM 37.3069 -103.5903 244° Southwest 377 434 40,000  Level Albuquerque Center
01:33PM 37.2853 -103.6469 244° Southwest 377 434 40,000  Level Denver Center
01:35PM 37.2417 -103.7606 244° Southwest 375 432 40,000  Level Denver Center
01:36PM 37.1897 -103.8911 243° Southwest 372 428 40,000  Level Denver Center
01:37PM 37.1464 -104.0039 244° Southwest 372 428 40,000  Level Denver Center
01:37PM 37.1236 -104.0600 243° Southwest 373 429 40,000  Level Albuquerque Center
01:38PM 37.0719 -104.1922 244° Southwest 376 433 40,000  Level Albuquerque Center
01:39PM 37.0278 -104.3069 244° Southwest 379 436 40,000  Level Albuquerque Center
01:40PM 36.9764 -104.4389 244° Southwest 378 435 40,000  Level Albuquerque Center
01:41PM 36.9533 -104.4958 243° Southwest 377 434 40,000  Level Denver Center
01:42PM 36.9011 -104.6258 243° Southwest 374 430 40,000  Level Denver Center
01:43PM 36.8500 -104.7542 244° Southwest 368 423 40,000  Level Denver Center
01:43PM 36.8364 -104.7897 244° Southwest 369 425 40,000  Level Albuquerque Center
01:44PM 36.7931 -104.8997 244° Southwest 369 425 40,000  Level Albuquerque Center
01:45PM 36.7406 -105.0272 243° Southwest 370 426 40,000  Level Albuquerque Center
01:46PM 36.6961 -105.1369 243° Southwest 371 427 40,000  Level Albuquerque Center
01:47PM 36.6436 -105.2644 243° Southwest 370 426 40,000  Level Albuquerque Center
01:48PM 36.5994 -105.3747 244° Southwest 371 427 40,000  Level Albuquerque Center
01:49PM 36.5472 -105.5042 243° Southwest 374 430 40,000  Level Albuquerque Center
01:51PM 36.4992 -105.6172 242° Southwest 381 438 40,000  Level Albuquerque Center
01:52PM 36.4508 -105.7336 243° Southwest 380 437 40,000  Level Albuquerque Center
01:53PM 36.4022 -105.8553 244° Southwest 390 449 40,000  Level Albuquerque Center
01:54PM 36.3544 -105.9722 243° Southwest 385 443 40,000  Level Albuquerque Center
01:55PM 36.3061 -106.0894 243° Southwest 383 441 40,000  Level Albuquerque Center
01:56PM 36.2472 -106.2286 242° Southwest 382 440 40,000  Level Albuquerque Center
01:57PM 36.1992 -106.3394 242° Southwest 382 440 40,000  Level Albuquerque Center
01:58PM 36.1489 -106.4608 243° Southwest 382 440 40,000  Level Albuquerque Center
01:59PM 36.1006 -106.5775 243° Southwest 382 440 40,000  Level Albuquerque Center
02:00PM 36.0508 -106.6950 242° Southwest 385 443 40,000  Level Albuquerque Center
02:01PM 36.0011 -106.8119 242° Southwest 386 444 40,000  Level Albuquerque Center
02:02PM 35.9411 -106.9522 242° Southwest 386 444 40,000  Level Albuquerque Center
02:03PM 35.8894 -107.0700 242° Southwest 388 447 40,000  Level Albuquerque Center
02:04PM 35.8342 -107.2014 243° Southwest 388 447 40,000  Level Albuquerque Center
02:05PM 35.7844 -107.3142 242° Southwest 390 449 40,000  Level Albuquerque Center
02:06PM 35.7361 -107.4253 242° Southwest 387 445 40,000  Level Albuquerque Center
02:07PM 35.6803 -107.5561 242° Southwest 386 444 40,000  Level Albuquerque Center
02:08PM 35.6306 -107.6686 241° Southwest 388 447 40,000  Level Albuquerque Center
02:09PM 35.5736 -107.7983 242° Southwest 386 444 40,000  Level Albuquerque Center
02:10PM 35.5244 -107.9103 242° Southwest 387 445 40,000  Level Albuquerque Center
02:11PM 35.4686 -108.0367 242° Southwest 381 438 40,000  Level Albuquerque Center
02:12PM 35.4194 -108.1456 241° Southwest 380 437 40,000  Level Albuquerque Center
02:13PM 35.3639 -108.2736 242° Southwest 380 437 40,000  Level Albuquerque Center
02:14PM 35.3153 -108.3825 241° Southwest 380 437 40,000  Level Albuquerque Center
02:15PM 35.2642 -108.4914 240° Southwest 382 440 40,000  Level Albuquerque Center
02:16PM 35.1908 -108.6028 231° Southwest 382 440 40,000  Level Albuquerque Center
02:17PM 35.1494 -108.7131 245° Southwest 373 429 40,000 -480 Level Albuquerque Center
02:18PM 35.0994 -108.8400 244° Southwest 371 427 39,100 -900 Descending Albuquerque Center
02:19PM 35.0558 -108.9453 243° Southwest 366 421 38,200 -1,020 Descending Albuquerque Center
02:21PM 35.0042 -109.0686 243° Southwest 364 419 37,000 -1,080 Descending Albuquerque Center
02:22PM 34.9575 -109.1808 243° Southwest 379 436 36,000 -540 Descending Albuquerque Center
02:23PM 34.9094 -109.3147 246° West 384 442 36,000  Level Albuquerque Center
02:24PM 34.8686 -109.4272 246° West 381 438 36,000  Level Albuquerque Center
02:25PM 34.8264 -109.5358 245° Southwest 375 432 36,000  Level Albuquerque Center
02:26PM 34.7783 -109.6667 246° West 377 434 36,000  Level Albuquerque Center
02:27PM 34.7372 -109.7789 246° West 379 436 36,000  Level Albuquerque Center
02:28PM 34.6892 -109.9089 246° West 378 435 36,000  Level Albuquerque Center
02:29PM 34.6478 -110.0194 246° West 376 433 36,000  Level Albuquerque Center
02:30PM 34.6022 -110.1528 247° West 381 438 36,000 -540 Level Albuquerque Center
02:31PM 34.5633 -110.2636 247° West 376 433 34,900 -1,500 Descending Albuquerque Center
02:32PM 34.5128 -110.3833 243° Southwest 362 417 33,000 -1,320 Descending Albuquerque Center
02:33PM 34.4769 -110.4869 247° West 365 420 32,300 -1,500 Descending Albuquerque Center
02:34PM 34.4372 -110.5931 246° West 353 406 30,000 -2,580 Descending Albuquerque Center
02:35PM 34.3903 -110.7089 244° Southwest 380 437 27,000 -2,580 Descending Albuquerque Center
02:36PM 34.3233 -110.8358 237° Southwest 375 432 24,700 -2,040 Descending Albuquerque Center
02:37PM 34.2578 -110.9222 227° Southwest 351 404 22,800 -1,800 Descending Albuquerque Center
02:38PM 34.1917 -111.0069 227° Southwest 349 402 21,000 -1,800 Descending Albuquerque Center
02:39PM 34.1278 -111.0892 227° Southwest 340 391 19,200 -1,680 Descending Albuquerque Center
02:40PM 34.0681 -111.1669 227° Southwest 324 373 17,600 -1,620 Descending Albuquerque Center
02:41PM 34.0083 -111.2433 227° Southwest 315 362 15,900 -1,680 Descending Albuquerque Center
02:42PM 33.9483 -111.3200 227° Southwest 313 360 14,200 -1,800 Descending Albuquerque Center
02:43PM 33.8769 -111.4083 226° Southwest 304 350 12,300 -1,500 Descending Albuquerque Center
02:44PM 33.8144 -111.4628 216° Southwest 275 316 11,100 -1,260 Descending Albuquerque Center
02:45PM 33.7647 -111.5064 216° Southwest 223 257 9,700 -1,500 Descending Albuquerque Center
02:46PM 33.7103 -111.5522 215° Southwest 235 270 8,000 -840 Descending Albuquerque Center
02:47PM 33.6506 -111.5833 203° Southwest 241 277 8,000  Level Albuquerque Center
02:48PM 33.5950 -111.6361 218° Southwest 254 292 8,100 -600 Climbing Albuquerque Center
02:49PM 33.5447 -111.6925 223° Southwest 247 284 6,800 -1,620 Descending Albuquerque Center
02:50PM 33.4875 -111.7572 223° Southwest 236 272 4,800 -1,440 Descending Albuquerque Center
02:51PM 33.4561 -111.8169 238° Southwest 211 243 3,900 -900 Descending Albuquerque Center
02:52PM 33.4322 -111.8756 244° Southwest 197 227 3,000 -840 Descending Albuquerque Center
02:54PM 33.4286 -111.9358 266° West 183 211 2,200 -780 Descending Albuquerque Center
02:55PM 33.4294 -111.9822 271° West 145 167 1,500 -720 Descending Albuquerque Center
02:57PM 33.4343 -112.0116 270° West  Level Estimated